sensor_id;sensor_type;location;lat;lon;timestamp;pressure;altitude;pressure_sealevel;temperature
45976;BMP280;31696;42.668;23.322;2023-06-14T00:01:47;94391.91;;;17.12
45976;BMP280;31696;42.668;23.322;2023-06-14T00:03:48;94387.13;;;17.20
45976;BMP280;31696;42.668;23.322;2023-06-14T00:05:49;94403.78;;;17.13
45976;BMP280;31696;42.668;23.322;2023-06-14T00:07:50;94397.41;;;17.16
45976;BMP280;31696;42.668;23.322;2023-06-14T00:09:53;94410.81;;;17.22
45976;BMP280;31696;42.668;23.322;2023-06-14T00:11:53;94381.41;;;17.23
45976;BMP280;31696;42.668;23.322;2023-06-14T00:13:54;94392.16;;;17.16
45976;BMP280;31696;42.668;23.322;2023-06-14T00:15:54;94385.81;;;17.21
45976;BMP280;31696;42.668;23.322;2023-06-14T00:17:55;94387.78;;;17.20
45976;BMP280;31696;42.668;23.322;2023-06-14T00:19:59;94380.31;;;17.15
45976;BMP280;31696;42.668;23.322;2023-06-14T00:22:00;94385.75;;;17.19
45976;BMP280;31696;42.668;23.322;2023-06-14T00:24:01;94377.06;;;17.16
45976;BMP280;31696;42.668;23.322;2023-06-14T00:26:01;94370.38;;;17.13
45976;BMP280;31696;42.668;23.322;2023-06-14T00:28:01;94369.31;;;17.18
45976;BMP280;31696;42.668;23.322;2023-06-14T00:30:02;94375.63;;;17.13
45976;BMP280;31696;42.668;23.322;2023-06-14T00:32:02;94370.94;;;17.12
45976;BMP280;31696;42.668;23.322;2023-06-14T00:34:02;94380.81;;;17.00
45976;BMP280;31696;42.668;23.322;2023-06-14T00:36:03;94372.88;;;17.11
45976;BMP280;31696;42.668;23.322;2023-06-14T00:38:03;94370.94;;;17.12
45976;BMP280;31696;42.668;23.322;2023-06-14T00:40:04;94372.31;;;17.13
45976;BMP280;31696;42.668;23.322;2023-06-14T00:42:05;94368.44;;;17.14
45976;BMP280;31696;42.668;23.322;2023-06-14T00:44:05;94367.19;;;17.15
45976;BMP280;31696;42.668;23.322;2023-06-14T00:46:06;94366.38;;;17.12
45976;BMP280;31696;42.668;23.322;2023-06-14T00:48:06;94361.69;;;17.11
45976;BMP280;31696;42.668;23.322;2023-06-14T00:50:07;94363.94;;;17.16
45976;BMP280;31696;42.668;23.322;2023-06-14T00:52:08;94364.91;;;17.09
45976;BMP280;31696;42.668;23.322;2023-06-14T00:54:12;94362.19;;;17.07
45976;BMP280;31696;42.668;23.322;2023-06-14T00:56:13;94363.00;;;17.10
45976;BMP280;31696;42.668;23.322;2023-06-14T00:58:15;94356.81;;;17.05
45976;BMP280;31696;42.668;23.322;2023-06-14T01:00:16;94361.41;;;17.05
45976;BMP280;31696;42.668;23.322;2023-06-14T01:02:17;94361.63;;;17.09
45976;BMP280;31696;42.668;23.322;2023-06-14T01:04:18;94359.06;;;17.11
45976;BMP280;31696;42.668;23.322;2023-06-14T01:11:07;94361.50;;;17.07
45976;BMP280;31696;42.668;23.322;2023-06-14T01:15:16;94363.44;;;17.06
45976;BMP280;31696;42.668;23.322;2023-06-14T01:17:18;94351.47;;;17.03
45976;BMP280;31696;42.668;23.322;2023-06-14T01:19:22;94356.81;;;17.05
45976;BMP280;31696;42.668;23.322;2023-06-14T01:21:25;94358.53;;;17.00
45976;BMP280;31696;42.668;23.322;2023-06-14T01:23:26;94381.03;;;17.04
45976;BMP280;31696;42.668;23.322;2023-06-14T01:25:32;94365.50;;;17.08
45976;BMP280;31696;42.668;23.322;2023-06-14T01:27:33;94358.66;;;17.03
45976;BMP280;31696;42.668;23.322;2023-06-14T01:29:33;94360.13;;;17.06
45976;BMP280;31696;42.668;23.322;2023-06-14T01:31:36;94351.00;;;17.07
45976;BMP280;31696;42.668;23.322;2023-06-14T01:33:41;94375.78;;;17.04
45976;BMP280;31696;42.668;23.322;2023-06-14T01:35:43;94357.09;;;16.97
45976;BMP280;31696;42.668;23.322;2023-06-14T01:37:43;94357.09;;;16.97
45976;BMP280;31696;42.668;23.322;2023-06-14T01:39:45;94354.59;;;17.00
45976;BMP280;31696;42.668;23.322;2023-06-14T01:41:47;94353.09;;;16.96
45976;BMP280;31696;42.668;23.322;2023-06-14T01:43:47;94351.84;;;16.97
45976;BMP280;31696;42.668;23.322;2023-06-14T01:45:49;94356.03;;;17.03
45976;BMP280;31696;42.668;23.322;2023-06-14T01:47:52;94346.50;;;16.95
45976;BMP280;31696;42.668;23.322;2023-06-14T01:49:53;94349.13;;;16.95
45976;BMP280;31696;42.668;23.322;2023-06-14T01:51:53;94350.94;;;16.93
45976;BMP280;31696;42.668;23.322;2023-06-14T01:53:54;94353.00;;;16.94
45976;BMP280;31696;42.668;23.322;2023-06-14T01:55:55;94353.09;;;16.96
45976;BMP280;31696;42.668;23.322;2023-06-14T01:57:55;94351.16;;;16.97
45976;BMP280;31696;42.668;23.322;2023-06-14T01:59:56;94378.19;;;17.00
45976;BMP280;31696;42.668;23.322;2023-06-14T02:01:56;94361.28;;;17.03
45976;BMP280;31696;42.668;23.322;2023-06-14T02:03:57;94373.38;;;16.96
45976;BMP280;31696;42.668;23.322;2023-06-14T02:05:57;94368.63;;;16.92
45976;BMP280;31696;42.668;23.322;2023-06-14T02:07:57;94372.63;;;16.93
45976;BMP280;31696;42.668;23.322;2023-06-14T02:09:58;94374.66;;;16.95
45976;BMP280;31696;42.668;23.322;2023-06-14T02:11:59;94381.72;;;16.92
45976;BMP280;31696;42.668;23.322;2023-06-14T02:14:01;94380.84;;;16.88
45976;BMP280;31696;42.668;23.322;2023-06-14T02:16:01;94385.25;;;16.97
45976;BMP280;31696;42.668;23.322;2023-06-14T02:18:02;94393.81;;;16.97
45976;BMP280;31696;42.668;23.322;2023-06-14T02:20:03;94385.44;;;17.01
45976;BMP280;31696;42.668;23.322;2023-06-14T02:22:05;94395.53;;;16.93
45976;BMP280;31696;42.668;23.322;2023-06-14T02:24:05;94388.56;;;16.86
45976;BMP280;31696;42.668;23.322;2023-06-14T02:26:06;94390.75;;;16.89
45976;BMP280;31696;42.668;23.322;2023-06-14T02:28:08;94396.22;;;16.93
45976;BMP280;31696;42.668;23.322;2023-06-14T02:30:09;94395.75;;;16.97
45976;BMP280;31696;42.668;23.322;2023-06-14T02:32:09;94385.84;;;16.95
45976;BMP280;31696;42.668;23.322;2023-06-14T02:34:10;94383.31;;;16.97
45976;BMP280;31696;42.668;23.322;2023-06-14T02:36:10;94396.22;;;16.93
45976;BMP280;31696;42.668;23.322;2023-06-14T02:38:10;94389.69;;;16.94
45976;BMP280;31696;42.668;23.322;2023-06-14T02:40:11;94390.81;;;17.03
45976;BMP280;31696;42.668;23.322;2023-06-14T02:42:12;94388.34;;;16.93
45976;BMP280;31696;42.668;23.322;2023-06-14T02:44:13;94387.38;;;17.00
45976;BMP280;31696;42.668;23.322;2023-06-14T02:46:13;94392.13;;;16.90
45976;BMP280;31696;42.668;23.322;2023-06-14T02:48:15;94387.09;;;16.94
45976;BMP280;31696;42.668;23.322;2023-06-14T02:50:15;94386.06;;;17.00
45976;BMP280;31696;42.668;23.322;2023-06-14T02:52:17;94384.34;;;16.92
45976;BMP280;31696;42.668;23.322;2023-06-14T02:54:17;94391.47;;;16.78
45976;BMP280;31696;42.668;23.322;2023-06-14T02:56:17;94386.53;;;16.84
45976;BMP280;31696;42.668;23.322;2023-06-14T02:58:20;94380.84;;;16.88
45976;BMP280;31696;42.668;23.322;2023-06-14T03:00:20;94389.69;;;16.94
45976;BMP280;31696;42.668;23.322;2023-06-14T03:02:22;94396.38;;;16.84
45976;BMP280;31696;42.668;23.322;2023-06-14T03:04:22;94400.03;;;16.79
45976;BMP280;31696;42.668;23.322;2023-06-14T03:06:23;94400.69;;;16.79
45976;BMP280;31696;42.668;23.322;2023-06-14T03:08:26;94393.41;;;16.78
45976;BMP280;31696;42.668;23.322;2023-06-14T03:10:30;94395.69;;;16.83
45976;BMP280;31696;42.668;23.322;2023-06-14T03:12:33;94398.66;;;16.78
45976;BMP280;31696;42.668;23.322;2023-06-14T03:14:33;94398.88;;;16.82
45976;BMP280;31696;42.668;23.322;2023-06-14T03:16:35;94404.66;;;16.80
45976;BMP280;31696;42.668;23.322;2023-06-14T03:18:37;94403.31;;;16.79
45976;BMP280;31696;42.668;23.322;2023-06-14T03:20:39;94397.97;;;16.77
45976;BMP280;31696;42.668;23.322;2023-06-14T03:22:41;94402.16;;;16.82
45976;BMP280;31696;42.668;23.322;2023-06-14T03:24:46;94402.72;;;16.81
45976;BMP280;31696;42.668;23.322;2023-06-14T03:26:48;94406.38;;;16.76
45976;BMP280;31696;42.668;23.322;2023-06-14T03:28:49;94398.66;;;16.78
45976;BMP280;31696;42.668;23.322;2023-06-14T03:30:50;94404.59;;;16.78
45976;BMP280;31696;42.668;23.322;2023-06-14T03:32:51;94400.69;;;16.79
45976;BMP280;31696;42.668;23.322;2023-06-14T03:34:56;94410.72;;;16.71
45976;BMP280;31696;42.668;23.322;2023-06-14T03:36:58;94407.75;;;16.77
45976;BMP280;31696;42.668;23.322;2023-06-14T03:38:58;94414.84;;;16.74
45976;BMP280;31696;42.668;23.322;2023-06-14T03:40:58;94417.56;;;16.76
45976;BMP280;31696;42.668;23.322;2023-06-14T03:42:59;94415.84;;;16.81
45976;BMP280;31696;42.668;23.322;2023-06-14T03:45:00;94414.72;;;16.84
45976;BMP280;31696;42.668;23.322;2023-06-14T03:47:01;94416.66;;;16.83
45976;BMP280;31696;42.668;23.322;2023-06-14T03:49:02;94425.44;;;16.76
45976;BMP280;31696;42.668;23.322;2023-06-14T03:51:03;94408.22;;;16.85
45976;BMP280;31696;42.668;23.322;2023-06-14T03:53:04;94415.50;;;16.86
45976;BMP280;31696;42.668;23.322;2023-06-14T03:55:05;94414.03;;;16.83
45976;BMP280;31696;42.668;23.322;2023-06-14T03:57:07;94411.19;;;16.79
45976;BMP280;31696;42.668;23.322;2023-06-14T03:59:08;94417.78;;;16.80
45976;BMP280;31696;42.668;23.322;2023-06-14T04:01:08;94424.72;;;16.87
45976;BMP280;31696;42.668;23.322;2023-06-14T04:03:09;94426.41;;;16.94
45976;BMP280;31696;42.668;23.322;2023-06-14T04:05:11;94442.16;;;16.94
45976;BMP280;31696;42.668;23.322;2023-06-14T04:07:17;94423.78;;;16.94
45976;BMP280;31696;42.668;23.322;2023-06-14T04:09:21;94430.72;;;17.02
45976;BMP280;31696;42.668;23.322;2023-06-14T04:11:21;94423.91;;;16.96
45976;BMP280;31696;42.668;23.322;2023-06-14T04:13:22;94425.41;;;17.00
45976;BMP280;31696;42.668;23.322;2023-06-14T04:15:22;94425.47;;;17.13
45976;BMP280;31696;42.668;23.322;2023-06-14T04:17:26;94446.25;;;17.09
45976;BMP280;31696;42.668;23.322;2023-06-14T04:19:26;94420.03;;;16.97
45976;BMP280;31696;42.668;23.322;2023-06-14T04:21:27;94418.63;;;17.08
45976;BMP280;31696;42.668;23.322;2023-06-14T04:23:29;94418.84;;;17.00
45976;BMP280;31696;42.668;23.322;2023-06-14T04:25:30;94443.50;;;17.07
45976;BMP280;31696;42.668;23.322;2023-06-14T04:27:32;94413.25;;;17.06
45976;BMP280;31696;42.668;23.322;2023-06-14T04:29:35;94428.34;;;17.06
45976;BMP280;31696;42.668;23.322;2023-06-14T04:31:40;94416.38;;;17.03
45976;BMP280;31696;42.668;23.322;2023-06-14T04:33:43;94426.84;;;17.03
45976;BMP280;31696;42.668;23.322;2023-06-14T04:35:45;94425.75;;;16.94
45976;BMP280;31696;42.668;23.322;2023-06-14T04:37:48;94422.84;;;17.02
45976;BMP280;31696;42.668;23.322;2023-06-14T04:39:48;94421.41;;;16.98
45976;BMP280;31696;42.668;23.322;2023-06-14T04:41:50;94425.25;;;17.09
45976;BMP280;31696;42.668;23.322;2023-06-14T04:43:57;94420.78;;;17.12
45976;BMP280;31696;42.668;23.322;2023-06-14T04:45:58;94426.25;;;17.16
45976;BMP280;31696;42.668;23.322;2023-06-14T04:48:00;94425.88;;;17.21
45976;BMP280;31696;42.668;23.322;2023-06-14T04:50:02;94422.69;;;17.23
45976;BMP280;31696;42.668;23.322;2023-06-14T04:52:05;94433.38;;;17.27
45976;BMP280;31696;42.668;23.322;2023-06-14T04:54:09;94443.88;;;17.27
45976;BMP280;31696;42.668;23.322;2023-06-14T04:56:15;94428.13;;;17.27
45976;BMP280;31696;42.668;23.322;2023-06-14T04:58:17;94430.88;;;17.29
45976;BMP280;31696;42.668;23.322;2023-06-14T05:00:18;94436.59;;;17.25
45976;BMP280;31696;42.668;23.322;2023-06-14T05:02:18;94433.91;;;17.37
45976;BMP280;31696;42.668;23.322;2023-06-14T05:04:19;94452.06;;;17.44
45976;BMP280;31696;42.668;23.322;2023-06-14T05:06:19;94446.88;;;17.46
45976;BMP280;31696;42.668;23.322;2023-06-14T05:08:21;94445.00;;;17.60
45976;BMP280;31696;42.668;23.322;2023-06-14T05:10:24;94438.84;;;17.56
45976;BMP280;31696;42.668;23.322;2023-06-14T05:12:25;94436.72;;;17.66
45976;BMP280;31696;42.668;23.322;2023-06-14T05:14:25;94441.31;;;17.66
45976;BMP280;31696;42.668;23.322;2023-06-14T05:16:26;94441.03;;;17.59
45976;BMP280;31696;42.668;23.322;2023-06-14T05:18:27;94442.56;;;17.64
45976;BMP280;31696;42.668;23.322;2023-06-14T05:20:28;94438.16;;;17.81
45976;BMP280;31696;42.668;23.322;2023-06-14T05:22:28;94444.84;;;17.70
45976;BMP280;31696;42.668;23.322;2023-06-14T05:24:28;94445.66;;;17.61
45976;BMP280;31696;42.668;23.322;2023-06-14T05:26:30;94452.47;;;17.66
45976;BMP280;31696;42.668;23.322;2023-06-14T05:28:31;94460.91;;;17.76
45976;BMP280;31696;42.668;23.322;2023-06-14T05:30:31;94457.59;;;17.76
45976;BMP280;31696;42.668;23.322;2023-06-14T05:32:33;94463.03;;;17.80
45976;BMP280;31696;42.668;23.322;2023-06-14T05:34:34;94472.13;;;17.90
45976;BMP280;31696;42.668;23.322;2023-06-14T05:36:34;94466.78;;;17.88
45976;BMP280;31696;42.668;23.322;2023-06-14T05:38:37;94490.91;;;17.98
45976;BMP280;31696;42.668;23.322;2023-06-14T05:40:37;94463.56;;;18.03
45976;BMP280;31696;42.668;23.322;2023-06-14T05:42:37;94465.72;;;18.07
45976;BMP280;31696;42.668;23.322;2023-06-14T05:44:38;94464.28;;;18.17
45976;BMP280;31696;42.668;23.322;2023-06-14T05:46:38;94472.28;;;18.19
45976;BMP280;31696;42.668;23.322;2023-06-14T05:48:40;94473.38;;;18.42
45976;BMP280;31696;42.668;23.322;2023-06-14T05:50:40;94479.78;;;18.11
45976;BMP280;31696;42.668;23.322;2023-06-14T05:52:41;94469.09;;;18.21
45976;BMP280;31696;42.668;23.322;2023-06-14T05:54:41;94481.91;;;18.28
45976;BMP280;31696;42.668;23.322;2023-06-14T05:56:42;94478.22;;;18.34
45976;BMP280;31696;42.668;23.322;2023-06-14T05:58:42;94475.72;;;18.49
45976;BMP280;31696;42.668;23.322;2023-06-14T06:00:42;94469.28;;;18.52
45976;BMP280;31696;42.668;23.322;2023-06-14T06:02:43;94479.63;;;18.62
45976;BMP280;31696;42.668;23.322;2023-06-14T06:04:43;94480.56;;;18.68
45976;BMP280;31696;42.668;23.322;2023-06-14T06:06:44;94475.22;;;18.66
45976;BMP280;31696;42.668;23.322;2023-06-14T06:08:45;94487.50;;;18.62
45976;BMP280;31696;42.668;23.322;2023-06-14T06:10:45;94478.34;;;18.49
45976;BMP280;31696;42.668;23.322;2023-06-14T06:12:46;94482.81;;;18.47
45976;BMP280;31696;42.668;23.322;2023-06-14T06:14:47;94481.34;;;18.44
45976;BMP280;31696;42.668;23.322;2023-06-14T06:16:47;94483.78;;;18.40
45976;BMP280;31696;42.668;23.322;2023-06-14T06:18:48;94487.28;;;18.44
45976;BMP280;31696;42.668;23.322;2023-06-14T06:20:48;94489.91;;;18.31
45976;BMP280;31696;42.668;23.322;2023-06-14T06:22:49;94483.66;;;18.38
45976;BMP280;31696;42.668;23.322;2023-06-14T06:24:49;94491.28;;;18.32
45976;BMP280;31696;42.668;23.322;2023-06-14T06:26:49;94489.34;;;18.32
45976;BMP280;31696;42.668;23.322;2023-06-14T06:28:50;94491.06;;;18.27
45976;BMP280;31696;42.668;23.322;2023-06-14T06:30:50;94488.59;;;18.18
45976;BMP280;31696;42.668;23.322;2023-06-14T06:32:51;94492.81;;;18.23
45976;BMP280;31696;42.668;23.322;2023-06-14T06:34:51;94491.25;;;18.18
45976;BMP280;31696;42.668;23.322;2023-06-14T06:36:52;94492.72;;;18.21
45976;BMP280;31696;42.668;23.322;2023-06-14T06:38:52;94495.53;;;18.11
45976;BMP280;31696;42.668;23.322;2023-06-14T06:40:52;94517.50;;;18.18
45976;BMP280;31696;42.668;23.322;2023-06-14T06:42:54;94506.25;;;18.15
45976;BMP280;31696;42.668;23.322;2023-06-14T06:44:54;94523.13;;;18.12
45976;BMP280;31696;42.668;23.322;2023-06-14T06:46:55;94498.25;;;18.13
45976;BMP280;31696;42.668;23.322;2023-06-14T06:48:55;94498.34;;;18.15
45976;BMP280;31696;42.668;23.322;2023-06-14T06:50:56;94501.50;;;18.25
45976;BMP280;31696;42.668;23.322;2023-06-14T06:52:56;94497.13;;;18.30
45976;BMP280;31696;42.668;23.322;2023-06-14T06:54:57;94496.13;;;18.23
45976;BMP280;31696;42.668;23.322;2023-06-14T06:56:58;94493.28;;;18.06
45976;BMP280;31696;42.668;23.322;2023-06-14T06:58:58;94498.25;;;18.13
45976;BMP280;31696;42.668;23.322;2023-06-14T07:00:58;94494.09;;;18.22
45976;BMP280;31696;42.668;23.322;2023-06-14T07:02:59;94500.91;;;18.27
45976;BMP280;31696;42.668;23.322;2023-06-14T07:04:59;94505.22;;;18.48
45976;BMP280;31696;42.668;23.322;2023-06-14T07:06:59;94502.28;;;18.42
45976;BMP280;31696;42.668;23.322;2023-06-14T07:09:00;94494.59;;;18.73
45976;BMP280;31696;42.668;23.322;2023-06-14T07:11:01;94496.56;;;18.59
45976;BMP280;31696;42.668;23.322;2023-06-14T07:13:02;94502.47;;;18.59
45976;BMP280;31696;42.668;23.322;2023-06-14T07:15:04;94502.19;;;18.80
45976;BMP280;31696;42.668;23.322;2023-06-14T07:17:05;94496.25;;;18.66
45976;BMP280;31696;42.668;23.322;2023-06-14T07:19:06;94496.34;;;18.82
45976;BMP280;31696;42.668;23.322;2023-06-14T07:21:07;94507.88;;;19.18
45976;BMP280;31696;42.668;23.322;2023-06-14T07:23:07;94512.94;;;19.56
45976;BMP280;31696;42.668;23.322;2023-06-14T07:25:08;94491.09;;;19.83
45976;BMP280;31696;42.668;23.322;2023-06-14T07:27:09;94504.09;;;20.26
45976;BMP280;31696;42.668;23.322;2023-06-14T07:29:10;94494.25;;;20.75
45976;BMP280;31696;42.668;23.322;2023-06-14T07:31:11;94492.59;;;20.35
45976;BMP280;31696;42.668;23.322;2023-06-14T07:33:12;94497.19;;;20.68
45976;BMP280;31696;42.668;23.322;2023-06-14T07:35:13;94488.44;;;20.30
45976;BMP280;31696;42.668;23.322;2023-06-14T07:37:13;94490.72;;;20.38
45976;BMP280;31696;42.668;23.322;2023-06-14T07:39:14;94492.44;;;20.15
45976;BMP280;31696;42.668;23.322;2023-06-14T07:41:15;94483.59;;;19.93
45976;BMP280;31696;42.668;23.322;2023-06-14T07:43:15;94482.22;;;19.92
45976;BMP280;31696;42.668;23.322;2023-06-14T07:45:16;94488.09;;;19.91
45976;BMP280;31696;42.668;23.322;2023-06-14T07:47:17;94488.97;;;19.95
45976;BMP280;31696;42.668;23.322;2023-06-14T07:49:17;94485.28;;;19.87
45976;BMP280;31696;42.668;23.322;2023-06-14T07:51:17;94486.84;;;19.92
45976;BMP280;31696;42.668;23.322;2023-06-14T07:53:18;94501.25;;;20.22
45976;BMP280;31696;42.668;23.322;2023-06-14T07:55:18;94514.88;;;20.32
45976;BMP280;31696;42.668;23.322;2023-06-14T07:57:19;94498.03;;;20.55
45976;BMP280;31696;42.668;23.322;2023-06-14T07:59:20;94504.00;;;21.06
45976;BMP280;31696;42.668;23.322;2023-06-14T08:01:21;94502.63;;;21.05
45976;BMP280;31696;42.668;23.322;2023-06-14T08:03:25;94505.56;;;20.95
45976;BMP280;31696;42.668;23.322;2023-06-14T08:05:27;94502.31;;;20.97
45976;BMP280;31696;42.668;23.322;2023-06-14T08:07:27;94499.91;;;21.73
45976;BMP280;31696;42.668;23.322;2023-06-14T08:09:28;94516.91;;;22.25
45976;BMP280;31696;42.668;23.322;2023-06-14T08:11:29;94516.38;;;22.70
45976;BMP280;31696;42.668;23.322;2023-06-14T08:13:30;94514.31;;;22.69
45976;BMP280;31696;42.668;23.322;2023-06-14T08:15:31;94514.72;;;22.39
45976;BMP280;31696;42.668;23.322;2023-06-14T08:17:31;94516.91;;;22.25
45976;BMP280;31696;42.668;23.322;2023-06-14T08:19:31;94519.13;;;22.13
45976;BMP280;31696;42.668;23.322;2023-06-14T08:21:32;94522.22;;;22.08
45976;BMP280;31696;42.668;23.322;2023-06-14T08:23:33;94518.28;;;21.89
45976;BMP280;31696;42.668;23.322;2023-06-14T08:25:33;94524.41;;;21.76
45976;BMP280;31696;42.668;23.322;2023-06-14T08:27:34;94515.03;;;22.10
45976;BMP280;31696;42.668;23.322;2023-06-14T08:29:35;94524.25;;;21.52
45976;BMP280;31696;42.668;23.322;2023-06-14T08:31:35;94529.78;;;21.60
45976;BMP280;31696;42.668;23.322;2023-06-14T08:33:36;94526.09;;;21.50
45976;BMP280;31696;42.668;23.322;2023-06-14T08:35:36;94528.09;;;21.32
45976;BMP280;31696;42.668;23.322;2023-06-14T08:37:39;94528.38;;;21.40
45976;BMP280;31696;42.668;23.322;2023-06-14T08:39:40;94526.09;;;21.50
45976;BMP280;31696;42.668;23.322;2023-06-14T08:41:41;94529.25;;;21.29
45976;BMP280;31696;42.668;23.322;2023-06-14T08:43:42;94527.19;;;21.43
45976;BMP280;31696;42.668;23.322;2023-06-14T08:45:43;94517.66;;;21.36
45976;BMP280;31696;42.668;23.322;2023-06-14T08:47:45;94515.84;;;21.58
45976;BMP280;31696;42.668;23.322;2023-06-14T08:49:46;94527.47;;;21.51
45976;BMP280;31696;42.668;23.322;2023-06-14T08:51:48;94502.72;;;21.60
45976;BMP280;31696;42.668;23.322;2023-06-14T08:53:55;94504.50;;;21.73
45976;BMP280;31696;42.668;23.322;2023-06-14T08:55:58;94502.34;;;21.87
45976;BMP280;31696;42.668;23.322;2023-06-14T08:58:01;94506.91;;;22.04
45976;BMP280;31696;42.668;23.322;2023-06-14T09:00:04;94507.31;;;22.36
45976;BMP280;31696;42.668;23.322;2023-06-14T09:02:12;94504.66;;;22.55
45976;BMP280;31696;42.668;23.322;2023-06-14T09:04:14;94505.34;;;22.78
45976;BMP280;31696;42.668;23.322;2023-06-14T09:06:14;94502.91;;;23.05
45976;BMP280;31696;42.668;23.322;2023-06-14T09:08:15;94505.31;;;22.97
45976;BMP280;31696;42.668;23.322;2023-06-14T09:10:16;94503.69;;;22.67
45976;BMP280;31696;42.668;23.322;2023-06-14T09:12:17;94501.44;;;22.18
45976;BMP280;31696;42.668;23.322;2023-06-14T09:14:18;94496.69;;;22.14
45976;BMP280;31696;42.668;23.322;2023-06-14T09:16:18;94498.09;;;22.17
45976;BMP280;31696;42.668;23.322;2023-06-14T09:18:18;94487.97;;;21.92
45976;BMP280;31696;42.668;23.322;2023-06-14T09:20:20;94489.34;;;21.93
45976;BMP280;31696;42.668;23.322;2023-06-14T09:22:20;94497.38;;;22.15
45976;BMP280;31696;42.668;23.322;2023-06-14T09:24:21;94494.41;;;22.26
45976;BMP280;31696;42.668;23.322;2023-06-14T09:26:23;94496.19;;;22.39
45976;BMP280;31696;42.668;23.322;2023-06-14T09:28:27;94489.06;;;22.44
45976;BMP280;31696;42.668;23.322;2023-06-14T09:30:28;94481.19;;;22.26
45976;BMP280;31696;42.668;23.322;2023-06-14T09:32:28;94483.94;;;22.28
45976;BMP280;31696;42.668;23.322;2023-06-14T09:34:29;94488.06;;;22.75
45976;BMP280;31696;42.668;23.322;2023-06-14T09:36:30;94484.81;;;22.76
45976;BMP280;31696;42.668;23.322;2023-06-14T09:38:33;94479.84;;;22.86
45976;BMP280;31696;42.668;23.322;2023-06-14T09:40:34;94484.34;;;22.84
45976;BMP280;31696;42.668;23.322;2023-06-14T09:42:36;94487.78;;;22.86
45976;BMP280;31696;42.668;23.322;2023-06-14T09:44:37;94476.56;;;22.46
45976;BMP280;31696;42.668;23.322;2023-06-14T09:46:37;94478.22;;;22.16
45976;BMP280;31696;42.668;23.322;2023-06-14T09:48:38;94481.81;;;22.05
45976;BMP280;31696;42.668;23.322;2023-06-14T09:50:42;94473.88;;;22.05
45976;BMP280;31696;42.668;23.322;2023-06-14T09:52:43;94474.56;;;21.86
45976;BMP280;31696;42.668;23.322;2023-06-14T09:54:45;94473.19;;;21.85
45976;BMP280;31696;42.668;23.322;2023-06-14T09:56:52;94469.56;;;21.94
45976;BMP280;31696;42.668;23.322;2023-06-14T09:58:54;94475.53;;;21.95
45976;BMP280;31696;42.668;23.322;2023-06-14T10:00:55;94465.56;;;21.93
45976;BMP280;31696;42.668;23.322;2023-06-14T10:02:57;94465.50;;;21.91
45976;BMP280;31696;42.668;23.322;2023-06-14T10:05:08;94467.13;;;22.20
45976;BMP280;31696;42.668;23.322;2023-06-14T10:07:12;94464.41;;;22.37
45976;BMP280;31696;42.668;23.322;2023-06-14T10:09:13;94458.31;;;22.54
45976;BMP280;31696;42.668;23.322;2023-06-14T10:11:14;94457.03;;;22.55
45976;BMP280;31696;42.668;23.322;2023-06-14T10:13:15;94450.50;;;22.58
45976;BMP280;31696;42.668;23.322;2023-06-14T10:15:20;94447.00;;;22.52
45976;BMP280;31696;42.668;23.322;2023-06-14T10:17:32;94445.16;;;22.78
45976;BMP280;31696;42.668;23.322;2023-06-14T10:19:44;94447.00;;;22.95
45976;BMP280;31696;42.668;23.322;2023-06-14T10:21:55;94440.03;;;23.06
45976;BMP280;31696;42.668;23.322;2023-06-14T10:23:56;94458.06;;;23.11
45976;BMP280;31696;42.668;23.322;2023-06-14T10:26:00;94437.38;;;23.06
45976;BMP280;31696;42.668;23.322;2023-06-14T10:28:20;94438.56;;;23.24
45976;BMP280;31696;42.668;23.322;2023-06-14T10:30:25;94446.13;;;23.10
45976;BMP280;31696;42.668;23.322;2023-06-14T10:32:25;94443.00;;;23.16
45976;BMP280;31696;42.668;23.322;2023-06-14T10:34:28;94436.22;;;23.11
45976;BMP280;31696;42.668;23.322;2023-06-14T10:36:29;94440.84;;;22.89
45976;BMP280;31696;42.668;23.322;2023-06-14T10:38:31;94445.59;;;22.71
45976;BMP280;31696;42.668;23.322;2023-06-14T10:40:33;94444.09;;;22.44
45976;BMP280;31696;42.668;23.322;2023-06-14T10:42:34;94425.72;;;22.48
45976;BMP280;31696;42.668;23.322;2023-06-14T10:46:35;94455.09;;;22.56
45976;BMP280;31696;42.668;23.322;2023-06-14T10:48:39;94434.09;;;22.40
45976;BMP280;31696;42.668;23.322;2023-06-14T10:50:41;94420.47;;;22.72
45976;BMP280;31696;42.668;23.322;2023-06-14T10:52:43;94429.50;;;23.08
45976;BMP280;31696;42.668;23.322;2023-06-14T10:56:56;94419.19;;;23.18
45976;BMP280;31696;42.668;23.322;2023-06-14T10:58:57;94414.91;;;23.07
45976;BMP280;31696;42.668;23.322;2023-06-14T11:00:57;94404.94;;;23.05
45976;BMP280;31696;42.668;23.322;2023-06-14T11:05:16;94410.50;;;22.92
45976;BMP280;31696;42.668;23.322;2023-06-14T11:11:41;94406.44;;;22.89
45976;BMP280;31696;42.668;23.322;2023-06-14T11:13:44;94402.28;;;23.05
45976;BMP280;31696;42.668;23.322;2023-06-14T11:15:45;94397.78;;;22.86
45976;BMP280;31696;42.668;23.322;2023-06-14T11:17:53;94400.91;;;23.28
45976;BMP280;31696;42.668;23.322;2023-06-14T11:20:12;94399.53;;;23.25
45976;BMP280;31696;42.668;23.322;2023-06-14T11:22:16;94393.00;;;23.04
45976;BMP280;31696;42.668;23.322;2023-06-14T11:24:17;94391.34;;;22.93
45976;BMP280;31696;42.668;23.322;2023-06-14T11:26:29;94389.22;;;23.11
45976;BMP280;31696;42.668;23.322;2023-06-14T11:28:37;94390.00;;;22.92
45976;BMP280;31696;42.668;23.322;2023-06-14T11:30:37;94391.56;;;22.78
45976;BMP280;31696;42.668;23.322;2023-06-14T11:32:37;94387.59;;;22.57
45976;BMP280;31696;42.668;23.322;2023-06-14T11:34:38;94389.94;;;22.69
45976;BMP280;31696;42.668;23.322;2023-06-14T11:36:38;94394.88;;;22.56
45976;BMP280;31696;42.668;23.322;2023-06-14T11:38:39;94385.47;;;22.73
45976;BMP280;31696;42.668;23.322;2023-06-14T11:40:39;94404.66;;;22.74
45976;BMP280;31696;42.668;23.322;2023-06-14T11:42:40;94386.44;;;22.84
45976;BMP280;31696;42.668;23.322;2023-06-14T11:44:41;94386.16;;;22.97
45976;BMP280;31696;42.668;23.322;2023-06-14T11:46:41;94377.59;;;23.22
45976;BMP280;31696;42.668;23.322;2023-06-14T11:48:42;94378.63;;;23.11